Time;durP1;ratioP1;P1;durP2;ratioP2;P2;SDS_P1;SDS_P2;PMS_P1;PMS_P2;Temp;Humidity;BMP_temperature;BMP_pressure;BME280_temperature;BME280_humidity;BME280_pressure;Samples;Min_cycle;Max_cycle;Signal;HPM_P1;HPM_P2
2022/06/27 00:49:34;;;;;;;13.57;1.70;;;;;;;17.65;nan;101499.34;6152256;23;20495;-94
2022/06/27 00:52:06;;;;;;;15.90;2.80;;;;;;;17.61;nan;101490.59;6167275;23;20452;-90
2022/06/27 00:54:38;;;;;;;8.77;1.90;;;;;;;17.57;nan;101498.47;6167416;23;20404;-90
2022/06/27 00:57:06;;;;;;;10.97;1.43;;;;;;;17.59;nan;101509.31;6116845;23;20415;-89
2022/06/27 00:59:35;;;;;;;11.00;2.20;;;;;;;17.49;nan;101487.69;6137723;23;20436;-89
2022/06/27 01:02:05;;;;;;;15.80;2.40;;;;;;;17.61;nan;101499.75;6113156;23;20439;-89
2022/06/27 01:04:37;;;;;;;13.40;2.27;;;;;;;17.66;nan;101506.56;6161270;23;20779;-89
2022/06/27 01:07:08;;;;;;;15.53;2.43;;;;;;;17.65;nan;101505.72;6138548;23;20415;-88
2022/06/27 01:09:41;;;;;;;10.97;2.10;;;;;;;17.54;nan;101492.53;6138311;23;20431;-90
2022/06/27 01:12:11;;;;;;;9.93;1.80;;;;;;;17.49;nan;101501.53;6112808;23;20405;-89
2022/06/27 01:14:41;;;;;;;15.60;2.33;;;;;;;17.52;nan;101494.69;6113003;23;20405;-90
2022/06/27 01:17:11;;;;;;;13.17;1.70;;;;;;;17.53;nan;101499.13;6161328;23;20742;-90
2022/06/27 01:19:42;;;;;;;17.97;2.20;;;;;;;17.51;nan;101510.41;6136614;23;20745;-89
2022/06/27 01:22:10;;;;;;;10.97;1.80;;;;;;;17.48;nan;101498.97;6161150;23;20448;-89
2022/06/27 01:24:38;;;;;;;16.77;2.07;;;;;;;17.43;nan;101504.31;6137616;23;20431;-89
2022/06/27 01:27:07;;;;;;;12.07;2.00;;;;;;;17.36;nan;101497.97;6136979;23;20744;-90
2022/06/27 01:29:35;;;;;;;8.03;1.90;;;;;;;17.50;nan;101507.91;6137682;23;20479;-90
2022/06/27 01:32:04;;;;;;;8.90;1.90;;;;;;;17.48;nan;101501.75;6137082;23;20419;-91
2022/06/27 01:34:32;;;;;;;8.10;1.70;;;;;;;17.42;nan;101505.38;6137093;23;20400;-90
2022/06/27 01:37:00;;;;;;;13.73;1.73;;;;;;;17.38;nan;101493.06;6113076;23;20400;-90
2022/06/27 01:39:30;;;;;;;10.03;1.80;;;;;;;17.42;nan;101505.38;6136863;23;20407;-89
2022/06/27 01:42:00;;;;;;;11.23;1.80;;;;;;;17.39;nan;101505.81;6161365;23;20766;-90
2022/06/27 01:44:30;;;;;;;10.93;2.20;;;;;;;17.33;nan;101501.16;6137116;23;20487;-89
2022/06/27 01:47:05;;;;;;;10.53;1.97;;;;;;;17.35;nan;101499.03;6136539;23;20468;-89
2022/06/27 01:49:35;;;;;;;8.57;1.67;;;;;;;17.38;nan;101493.91;6131142;23;20428;-90
2022/06/27 01:52:06;;;;;;;8.13;1.67;;;;;;;17.38;nan;101501.34;6156022;23;20405;-90
2022/06/27 01:54:35;;;;;;;9.90;1.87;;;;;;;17.37;nan;101496.88;6155438;23;20405;-89
2022/06/27 01:57:04;;;;;;;17.57;2.10;;;;;;;17.28;nan;101496.31;6131492;23;20412;-89
2022/06/27 01:59:32;;;;;;;6.60;1.60;;;;;;;17.26;nan;101495.69;6106675;23;20413;-90
2022/06/27 02:02:04;;;;;;;7.50;1.90;;;;;;;17.26;nan;101502.06;6131459;23;20791;-89
2022/06/27 02:04:32;;;;;;;13.87;2.00;;;;;;;17.32;nan;101503.06;6106941;23;20459;-89
2022/06/27 02:07:07;;;;;;;7.73;1.10;;;;;;;17.40;nan;101507.50;6130792;23;20408;-89
2022/06/27 02:09:36;;;;;;;18.20;2.47;;;;;;;17.31;nan;101500.56;6155047;23;20412;-89
2022/06/27 02:12:19;;;;;;;7.97;1.93;;;;;;;17.31;nan;101503.31;6129792;23;20912;-90
2022/06/27 02:14:52;;;;;;;13.17;1.73;;;;;;;17.31;nan;101503.31;6134575;23;20409;-88
2022/06/27 02:17:21;;;;;;;16.67;2.50;;;;;;;17.18;nan;101488.47;6131368;23;20396;-89
2022/06/27 02:19:49;;;;;;;12.67;1.93;;;;;;;17.20;nan;101491.88;6130657;23;20413;-89
2022/06/27 02:22:17;;;;;;;9.73;2.20;;;;;;;17.21;nan;101496.34;6106942;23;20524;-90
2022/06/27 02:24:44;;;;;;;10.50;2.70;;;;;;;17.14;nan;101489.97;6130704;23;20400;-89
2022/06/27 02:27:12;;;;;;;11.03;1.70;;;;;;;17.19;nan;101495.69;6131130;23;20401;-89
2022/06/27 02:29:40;;;;;;;10.17;1.70;;;;;;;17.18;nan;101494.00;6130842;23;20747;-89
2022/06/27 02:32:08;;;;;;;7.57;1.70;;;;;;;17.22;nan;101484.22;6130890;23;20876;-90
2022/06/27 02:34:36;;;;;;;14.00;1.63;;;;;;;17.27;nan;101498.22;6107158;23;20486;-90
2022/06/27 02:37:04;;;;;;;12.10;1.70;;;;;;;17.27;nan;101478.03;6131184;23;20420;-89
2022/06/27 02:39:36;;;;;;;12.47;2.23;;;;;;;17.17;nan;101470.22;6105549;23;20747;-88
2022/06/27 02:42:07;;;;;;;12.93;2.30;;;;;;;17.22;nan;101492.50;6106912;23;20433;-88
2022/06/27 02:44:35;;;;;;;13.20;1.70;;;;;;;17.15;nan;101483.38;6106946;23;20740;-88
2022/06/27 02:47:06;;;;;;;16.03;3.10;;;;;;;17.19;nan;101487.41;6105991;23;20408;-89
2022/06/27 02:49:35;;;;;;;6.03;1.80;;;;;;;17.20;nan;101485.50;6130754;23;20568;-89
2022/06/27 02:52:10;;;;;;;20.53;2.50;;;;;;;17.17;nan;101481.25;6131003;23;20412;-90
2022/06/27 02:54:42;;;;;;;7.60;1.87;;;;;;;17.15;nan;101464.06;6106922;23;20740;-89
2022/06/27 02:57:15;;;;;;;9.87;1.33;;;;;;;17.21;nan;101481.66;6155378;23;20753;-92
2022/06/27 03:00:00;;;;;;;11.13;1.90;;;;;;;17.15;nan;101480.63;6156463;23;20396;-93
2022/06/27 03:02:29;;;;;;;9.87;1.97;;;;;;;17.13;nan;101485.50;6155139;23;20503;-91
2022/06/27 03:05:04;;;;;;;10.90;1.50;;;;;;;17.11;nan;101473.88;6131295;23;20424;-93
2022/06/27 03:07:40;;;;;;;11.30;1.77;;;;;;;17.15;nan;101486.16;6108226;23;20460;-93
2022/06/27 03:10:10;;;;;;;11.57;1.70;;;;;;;17.11;nan;101470.25;6107385;23;20419;-92
2022/06/27 03:12:43;;;;;;;12.97;1.93;;;;;;;17.14;nan;101476.16;6155091;23;20892;-92
2022/06/27 03:15:15;;;;;;;11.53;1.83;;;;;;;17.22;nan;101475.94;6131323;23;20427;-92
2022/06/27 03:17:51;;;;;;;10.93;1.80;;;;;;;17.25;nan;101483.78;6131395;23;20389;-92
2022/06/27 03:20:22;;;;;;;19.80;2.20;;;;;;;17.18;nan;101480.19;6131401;23;20400;-93
2022/06/27 03:23:00;;;;;;;16.23;2.63;;;;;;;17.14;nan;101464.25;6130219;23;20459;-92
2022/06/27 03:25:45;;;;;;;11.87;1.60;;;;;;;17.12;nan;101478.31;6155791;23;20423;-92
2022/06/27 03:28:20;;;;;;;7.50;1.50;;;;;;;17.09;nan;101461.34;6107951;23;20397;-92
2022/06/27 03:30:56;;;;;;;10.57;2.10;;;;;;;17.09;nan;101472.38;6131462;23;20751;-91
2022/06/27 03:33:31;;;;;;;9.70;2.00;;;;;;;17.13;nan;101466.19;6130684;23;20408;-92
2022/06/27 03:36:07;;;;;;;10.90;1.83;;;;;;;17.14;nan;101467.88;6155004;23;20408;-92
2022/06/27 03:38:36;;;;;;;12.70;2.20;;;;;;;17.13;nan;101468.94;6131674;23;20699;-92
2022/06/27 03:41:06;;;;;;;8.90;1.70;;;;;;;17.10;nan;101474.94;6131864;23;20394;-93
2022/06/27 03:43:35;;;;;;;14.03;1.70;;;;;;;17.01;nan;101470.72;6130223;23;20449;-92
2022/06/27 03:46:24;;;;;;;9.93;1.90;;;;;;;17.16;nan;101484.22;6132415;23;20484;-93
2022/06/27 03:52:21;;;;;;;12.67;2.10;;;;;;;17.13;nan;101485.50;6143665;23;20403;-92
2022/06/27 03:54:55;;;;;;;18.70;2.63;;;;;;;17.29;nan;101488.88;6159646;23;20476;-93
2022/06/27 03:57:46;;;;;;;8.50;2.10;;;;;;;17.22;nan;101480.59;6184958;23;20420;-93
2022/06/27 04:00:16;;;;;;;14.43;2.10;;;;;;;17.20;nan;101499.31;6160892;23;20396;-91
2022/06/27 04:02:54;;;;;;;5.70;1.70;;;;;;;17.13;nan;101485.50;6136223;23;20555;-92
2022/06/27 04:05:22;;;;;;;9.57;1.87;;;;;;;17.09;nan;101488.97;6161362;23;20395;-93
2022/06/27 04:08:02;;;;;;;10.77;1.70;;;;;;;17.17;nan;101480.41;6117360;23;20411;-92
2022/06/27 04:10:38;;;;;;;8.47;1.80;;;;;;;17.08;nan;101477.06;6135704;23;20423;-92
2022/06/27 04:13:18;;;;;;;17.10;2.10;;;;;;;17.09;nan;101488.97;6160888;23;20396;-92
2022/06/27 04:15:47;;;;;;;7.93;1.60;;;;;;;17.07;nan;101488.31;6112684;23;20407;-92
2022/06/27 04:18:18;;;;;;;11.27;3.20;;;;;;;17.05;nan;101487.69;6136834;23;20467;-92
2022/06/27 04:20:53;;;;;;;13.00;2.20;;;;;;;17.07;nan;101477.28;6112658;23;20714;-93
2022/06/27 04:23:30;;;;;;;13.03;3.03;;;;;;;17.11;nan;101490.44;6135670;23;20458;-92
2022/06/27 04:25:58;;;;;;;11.67;2.13;;;;;;;17.02;nan;101483.44;6160960;23;20423;-92
2022/06/27 04:28:28;;;;;;;10.33;1.50;;;;;;;16.95;nan;101477.09;6112234;23;20431;-93
2022/06/27 04:31:02;;;;;;;12.53;1.70;;;;;;;17.15;nan;101494.44;6136593;23;20416;-92
2022/06/27 04:33:30;;;;;;;11.00;1.70;;;;;;;16.98;nan;101486.84;6132393;23;20879;-91
2022/06/27 04:36:05;;;;;;;12.10;1.97;;;;;;;16.89;nan;101478.84;6110016;23;20416;-92
2022/06/27 04:38:46;;;;;;;10.13;2.27;;;;;;;16.96;nan;101506.41;6114499;23;20415;-92
2022/06/27 04:41:25;;;;;;;15.57;2.73;;;;;;;16.89;nan;101497.31;6161632;23;20400;-92
2022/06/27 04:43:53;;;;;;;12.93;1.80;;;;;;;16.92;nan;101502.41;6162293;23;20461;-92
2022/06/27 04:46:24;;;;;;;12.97;2.23;;;;;;;16.92;nan;101511.53;6137489;23;20470;-93
2022/06/27 04:48:53;;;;;;;13.17;1.87;;;;;;;16.91;nan;101504.31;6162852;23;20718;-91
2022/06/27 04:51:29;;;;;;;14.17;2.13;;;;;;;16.96;nan;101511.06;6108485;23;20443;-92
2022/06/27 04:53:58;;;;;;;11.73;2.57;;;;;;;16.92;nan;101514.31;6131496;23;20412;-92
2022/06/27 04:56:35;;;;;;;11.73;2.50;;;;;;;16.93;nan;101517.91;6132253;23;20385;-93
2022/06/27 04:59:20;;;;;;;13.37;2.30;;;;;;;16.95;nan;101523.19;6132791;23;20919;-92
2022/06/27 05:01:50;;;;;;;7.80;2.53;;;;;;;16.90;nan;101510.06;6157344;23;20405;-92
2022/06/27 05:04:28;;;;;;;13.13;2.10;;;;;;;16.92;nan;101505.16;6109104;23;20480;-92
2022/06/27 05:07:05;;;;;;;13.53;1.60;;;;;;;16.81;nan;101492.00;6110064;23;20397;-92
2022/06/27 05:09:34;;;;;;;16.90;1.97;;;;;;;16.89;nan;101505.59;6132117;23;20727;-91
2022/06/27 05:12:02;;;;;;;10.40;2.30;;;;;;;16.83;nan;101520.25;6132033;23;20420;-91
2022/06/27 05:14:32;;;;;;;11.17;2.00;;;;;;;16.85;nan;101515.38;6133423;23;20402;-92
2022/06/27 05:17:04;;;;;;;9.47;1.50;;;;;;;16.79;nan;101505.19;6131855;23;20401;-92
2022/06/27 05:19:42;;;;;;;18.73;1.80;;;;;;;16.84;nan;101516.44;6156484;23;20451;-92
2022/06/27 05:22:11;;;;;;;12.83;2.90;;;;;;;16.82;nan;101526.84;6157822;23;20994;-92
2022/06/27 05:24:40;;;;;;;11.60;2.17;;;;;;;16.92;nan;101538.31;6131799;23;20427;-92
2022/06/27 05:27:19;;;;;;;11.37;1.90;;;;;;;16.86;nan;101528.13;6132798;23;20381;-93
2022/06/27 05:29:55;;;;;;;13.83;2.53;;;;;;;16.89;nan;101525.78;6156148;23;20417;-92
2022/06/27 05:32:26;;;;;;;11.57;1.70;;;;;;;16.99;nan;101528.06;6130858;23;20547;-92
2022/06/27 05:35:10;;;;;;;9.33;2.20;;;;;;;16.92;nan;101536.38;6180130;23;20421;-92
2022/06/27 05:37:50;;;;;;;17.97;2.23;;;;;;;16.95;nan;101531.47;6156497;23;20409;-92
2022/06/27 05:40:22;;;;;;;7.17;1.70;;;;;;;16.96;nan;101531.25;6132031;23;20436;-92
2022/06/27 05:43:19;;;;;;;12.20;2.10;;;;;;;16.94;nan;101541.66;6131688;23;20975;-92
2022/06/27 05:45:53;;;;;;;13.63;2.00;;;;;;;16.96;nan;101534.03;6155963;23;20401;-91
2022/06/27 05:48:24;;;;;;;9.97;1.70;;;;;;;16.97;nan;101530.19;6156871;23;20464;-91
2022/06/27 05:50:52;;;;;;;12.23;1.70;;;;;;;16.90;nan;101537.66;6156535;23;20524;-90
2022/06/27 05:53:28;;;;;;;10.50;2.27;;;;;;;16.87;nan;101524.28;6107383;23;20422;-89
2022/06/27 05:55:57;;;;;;;16.70;2.47;;;;;;;16.99;nan;101566.72;6108690;23;20389;-89
2022/06/27 05:58:26;;;;;;;9.70;2.00;;;;;;;17.02;nan;101555.25;6131715;23;20424;-89
2022/06/27 06:01:15;;;;;;;13.57;1.73;;;;;;;17.08;nan;101559.94;6132503;23;20484;-89
2022/06/27 06:03:51;;;;;;;11.80;1.90;;;;;;;17.04;nan;101564.19;6156078;23;20452;-91
2022/06/27 06:06:21;;;;;;;11.03;1.63;;;;;;;17.10;nan;101574.38;6131445;23;20895;-89
2022/06/27 06:08:50;;;;;;;13.43;1.80;;;;;;;17.08;nan;101570.97;6156423;23;20406;-90
2022/06/27 06:11:25;;;;;;;11.90;2.20;;;;;;;17.06;nan;101573.09;6132489;23;20401;-89
2022/06/27 06:14:04;;;;;;;8.43;2.20;;;;;;;17.14;nan;101578.38;6132032;23;20396;-89
2022/06/27 06:16:33;;;;;;;7.80;1.73;;;;;;;17.11;nan;101576.06;6156052;23;20900;-90
2022/06/27 06:19:06;;;;;;;8.53;1.73;;;;;;;17.18;nan;101589.84;6132377;23;20460;-90
2022/06/27 06:21:42;;;;;;;16.20;1.83;;;;;;;17.26;nan;101582.19;6156712;23;20413;-89
2022/06/27 06:24:11;;;;;;;12.23;1.80;;;;;;;17.25;nan;101587.94;6155560;23;20511;-88
2022/06/27 06:26:41;;;;;;;7.60;1.97;;;;;;;17.32;nan;101598.97;6131701;23;20483;-89
2022/06/27 06:29:15;;;;;;;10.93;1.57;;;;;;;17.39;nan;101602.53;6132088;23;20484;-88
2022/06/27 06:31:51;;;;;;;11.77;2.33;;;;;;;17.48;nan;101599.34;6132434;23;20465;-90
2022/06/27 06:34:34;;;;;;;13.43;2.00;;;;;;;17.51;nan;101604.41;6155475;23;20416;-89
2022/06/27 06:37:11;;;;;;;12.90;1.97;;;;;;;17.54;nan;101611.41;6157495;23;20444;-92
2022/06/27 06:39:48;;;;;;;18.40;2.67;;;;;;;17.59;nan;101617.13;6160595;23;20389;-92
2022/06/27 06:42:21;;;;;;;9.90;1.80;;;;;;;17.62;nan;101630.53;6133496;23;20731;-91
2022/06/27 06:44:52;;;;;;;11.67;2.00;;;;;;;17.72;nan;101619.88;6182593;23;20440;-91
2022/06/27 06:47:29;;;;;;;16.30;1.77;;;;;;;17.76;nan;101625.81;6134583;23;20528;-90
2022/06/27 06:49:58;;;;;;;12.43;2.80;;;;;;;17.77;nan;101625.59;6162192;23;20571;-91
2022/06/27 06:52:33;;;;;;;10.87;1.67;;;;;;;17.82;nan;101639.63;6164216;23;20485;-90
2022/06/27 06:55:09;;;;;;;9.40;1.93;;;;;;;17.92;nan;101633.59;6163996;23;20831;-90
2022/06/27 06:57:48;;;;;;;10.57;2.30;;;;;;;18.02;nan;101630.38;6186901;23;20418;-91
2022/06/27 07:00:19;;;;;;;8.00;1.63;;;;;;;17.95;nan;101639.53;6115094;23;20893;-91
2022/06/27 07:03:16;;;;;;;6.90;1.80;;;;;;;18.01;nan;101635.06;6044411;23;20555;-91
2022/06/27 07:05:54;;;;;;;9.27;2.00;;;;;;;18.04;nan;101637.38;6067216;23;20508;-92
2022/06/27 07:08:30;;;;;;;13.67;2.30;;;;;;;18.18;nan;101643.69;6067189;23;20407;-88
2022/06/27 07:10:58;;;;;;;8.00;2.10;;;;;;;18.25;nan;101638.97;6068009;23;20410;-86
2022/06/27 07:13:27;;;;;;;7.23;1.67;;;;;;;18.27;nan;101636.81;6074618;23;20412;-87
2022/06/27 07:15:56;;;;;;;20.33;2.47;;;;;;;18.35;nan;101644.00;6066525;23;20410;-86
2022/06/27 07:18:25;;;;;;;24.67;2.57;;;;;;;18.41;nan;101649.50;6049778;23;20443;-91
2022/06/27 07:20:54;;;;;;;8.17;2.10;;;;;;;18.61;nan;101654.94;6113683;23;20555;-90
2022/06/27 07:23:22;;;;;;;12.60;1.97;;;;;;;18.52;nan;101654.31;6137890;23;20447;-90
2022/06/27 07:25:51;;;;;;;8.70;1.67;;;;;;;18.50;nan;101639.84;6139598;23;20440;-90
2022/06/27 07:28:26;;;;;;;14.13;2.27;;;;;;;18.50;nan;101652.81;6139723;23;20420;-91
2022/06/27 07:31:08;;;;;;;8.93;2.10;;;;;;;18.65;nan;101647.88;6184927;23;20534;-91
2022/06/27 07:33:37;;;;;;;18.77;2.30;;;;;;;18.70;nan;101648.03;6185013;23;20412;-91
2022/06/27 07:36:15;;;;;;;9.17;1.70;;;;;;;18.72;nan;101647.78;6111467;23;20412;-91
2022/06/27 07:38:46;;;;;;;10.27;1.50;;;;;;;18.85;nan;101644.94;6137735;23;20454;-92
2022/06/27 07:41:19;;;;;;;5.17;1.67;;;;;;;18.87;nan;101642.75;6112779;23;20747;-91
2022/06/27 07:44:12;;;;;;;17.60;2.87;;;;;;;18.92;nan;101652.09;6113724;23;20511;-92
2022/06/27 07:46:41;;;;;;;19.20;2.57;;;;;;;19.00;nan;101642.66;6186293;23;20411;-91
2022/06/27 07:49:12;;;;;;;12.50;2.20;;;;;;;19.09;nan;101657.06;6138118;23;20473;-91
2022/06/27 07:52:06;;;;;;;11.13;1.80;;;;;;;19.09;nan;101654.28;6161453;23;20440;-93
2022/06/27 07:54:44;;;;;;;11.80;1.77;;;;;;;19.11;nan;101643.81;6163876;23;20407;-91
2022/06/27 07:57:17;;;;;;;20.03;2.63;;;;;;;19.14;nan;101651.69;6161631;23;20484;-92
2022/06/27 08:00:06;;;;;;;12.13;2.63;;;;;;;19.24;nan;101658.38;6160090;23;20423;-91
2022/06/27 08:02:35;;;;;;;13.70;1.93;;;;;;;19.29;nan;101643.84;6185690;23;20524;-92
2022/06/27 08:05:23;;;;;;;11.10;2.20;;;;;;;19.36;nan;101641.00;6112374;23;20899;-92
2022/06/27 08:07:56;;;;;;;12.43;1.97;;;;;;;19.41;nan;101641.19;6164071;23;20910;-92
2022/06/27 08:10:31;;;;;;;10.13;2.37;;;;;;;19.40;nan;101642.25;6139146;23;20553;-92
2022/06/27 08:13:06;;;;;;;14.83;1.87;;;;;;;19.37;nan;101648.25;6138150;23;20403;-91
2022/06/27 08:15:55;;;;;;;18.13;2.00;;;;;;;19.49;nan;101660.25;6187682;23;20857;-91
2022/06/27 08:18:32;;;;;;;13.47;1.90;;;;;;;19.48;nan;101656.63;6138262;23;20419;-92
2022/06/27 08:21:12;;;;;;;9.63;2.20;;;;;;;19.40;nan;101642.25;6162162;23;20466;-92
2022/06/27 08:23:41;;;;;;;11.77;1.60;;;;;;;19.48;nan;101658.56;6114190;23;20446;-92
2022/06/27 08:26:25;;;;;;;5.13;1.33;;;;;;;19.62;nan;101672.09;6138132;23;20476;-92
2022/06/27 08:29:08;;;;;;;5.23;1.83;;;;;;;19.60;nan;101660.41;6098035;23;20501;-92
2022/06/27 08:31:53;;;;;;;9.93;1.43;;;;;;;19.67;nan;101660.28;6049324;23;20466;-93
2022/06/27 08:34:47;;;;;;;9.67;1.77;;;;;;;19.73;nan;101670.47;6050546;23;20501;-93
2022/06/27 08:37:29;;;;;;;11.73;2.27;;;;;;;19.83;nan;101681.00;6098634;23;20790;-91
2022/06/27 08:40:22;;;;;;;8.43;1.43;;;;;;;19.93;nan;101671.06;6074025;23;20755;-91
2022/06/27 08:42:55;;;;;;;5.97;1.50;;;;;;;19.88;nan;101662.59;6050590;23;20430;-92
2022/06/27 08:45:41;;;;;;;7.43;1.37;;;;;;;20.05;nan;101673.06;6050120;23;20403;-91
2022/06/27 08:48:13;;;;;;;7.53;1.93;;;;;;;20.04;nan;101686.09;6157428;23;20454;-92
2022/06/27 08:50:41;;;;;;;7.40;1.57;;;;;;;20.03;nan;101653.84;6158840;23;20440;-91
2022/06/27 08:53:38;;;;;;;13.47;1.57;;;;;;;20.16;nan;101709.22;6109435;23;20420;-91
2022/06/27 08:56:19;;;;;;;10.03;1.27;;;;;;;20.21;nan;101667.69;6158314;23;20417;-91
2022/06/27 08:58:59;;;;;;;4.20;1.37;;;;;;;20.17;nan;101657.31;6159031;23;20947;-91
2022/06/27 09:01:37;;;;;;;10.03;1.73;;;;;;;20.21;nan;101647.41;6132582;23;20409;-90
2022/06/27 09:08:01;;;;;;;4.67;1.33;;;;;;;20.36;nan;101692.28;6159346;23;20417;-91
2022/06/27 09:11:06;;;;;;;11.53;1.30;;;;;;;20.33;nan;101693.59;6162463;23;20413;-93
2022/06/27 09:13:36;;;;;;;9.73;1.37;;;;;;;20.33;nan;101704.69;6158973;23;20472;-92
2022/06/27 09:16:23;;;;;;;4.77;1.20;;;;;;;20.48;nan;101701.53;6137332;23;20400;-92
2022/06/27 09:18:53;;;;;;;10.33;1.27;;;;;;;20.44;nan;101683.63;6158178;23;20470;-93
2022/06/27 09:21:22;;;;;;;8.97;1.33;;;;;;;20.65;nan;101685.88;6135019;23;20417;-92
2022/06/27 10:02:26;;;;;;;11.83;2.03;;;;;;;21.73;nan;101665.16;6208839;22;20762;-89
2022/06/27 10:05:06;;;;;;;6.30;1.97;;;;;;;21.91;nan;101690.03;6167602;23;20538;-93
2022/06/27 10:08:50;;;;;;;11.87;1.47;;;;;;;21.81;nan;101644.41;6067755;23;20412;-90
2022/06/27 10:53:38;;;;;;;10.53;1.63;;;;;;;22.54;nan;101700.22;6190757;23;20380;-91
2022/06/27 11:07:22;;;;;;;14.90;2.00;;;;;;;22.97;nan;101718.31;6089223;23;20445;-92
2022/06/27 11:09:51;;;;;;;6.40;2.30;;;;;;;23.06;nan;101737.19;6097125;23;20490;-94
2022/06/27 11:12:23;;;;;;;11.00;1.97;;;;;;;22.91;nan;101714.59;6027107;23;20426;-95
2022/06/27 11:15:05;;;;;;;4.80;1.47;;;;;;;23.23;nan;101725.19;6051793;23;20897;-94
2022/06/27 11:17:43;;;;;;;6.57;1.50;;;;;;;23.18;nan;101716.72;6073325;23;20462;-92
2022/06/27 11:20:25;;;;;;;11.77;2.13;;;;;;;23.40;nan;101726.84;6049282;23;20418;-91
2022/06/27 11:23:11;;;;;;;7.83;1.30;;;;;;;23.42;nan;101719.06;6075871;23;20411;-93
2022/06/27 11:25:41;;;;;;;8.73;1.80;;;;;;;23.42;nan;101713.50;6096038;23;20901;-92
2022/06/27 11:34:01;;;;;;;11.60;1.73;;;;;;;24.09;nan;101724.50;6165151;23;20415;-92
2022/06/27 11:36:29;;;;;;;11.50;1.80;;;;;;;24.07;nan;101720.28;6136119;23;20446;-94
2022/06/27 11:39:27;;;;;;;14.23;2.30;;;;;;;23.96;nan;101735.22;6113250;23;20490;-94
2022/06/27 11:42:00;;;;;;;7.27;1.87;;;;;;;23.92;nan;101717.28;6162322;23;20543;-92
2022/06/27 11:44:29;;;;;;;10.17;1.90;;;;;;;23.91;nan;101721.19;6162672;23;20448;-89
2022/06/27 11:50:39;;;;;;;12.20;1.87;;;;;;;23.84;nan;101693.47;6197273;23;20743;-88
2022/06/27 11:53:08;;;;;;;7.83;1.50;;;;;;;23.79;nan;101701.75;6138131;23;20392;-88
2022/06/27 11:55:38;;;;;;;9.57;1.30;;;;;;;23.79;nan;101704.56;6139037;23;20408;-90
2022/06/27 11:58:17;;;;;;;7.63;1.60;;;;;;;23.81;nan;101721.91;6139734;23;20407;-91
2022/06/27 12:00:48;;;;;;;11.77;2.50;;;;;;;23.76;nan;101702.28;6162469;23;20882;-93
2022/06/27 12:03:16;;;;;;;12.47;1.70;;;;;;;23.72;nan;101712.28;6157693;23;20776;-94
2022/06/27 12:05:44;;;;;;;13.70;2.33;;;;;;;23.71;nan;101738.50;6130874;23;20741;-89
2022/06/27 12:08:13;;;;;;;14.80;2.20;;;;;;;23.78;nan;101705.66;6108994;23;20480;-91
2022/06/27 12:14:30;;;;;;;12.07;2.07;;;;;;;23.85;nan;101691.53;6158473;23;20372;-91
2022/06/27 12:16:59;;;;;;;13.30;1.90;;;;;;;24.10;nan;101703.84;6108925;23;20951;-92
2022/06/27 12:19:29;;;;;;;7.43;2.07;;;;;;;24.21;nan;101715.16;6133713;23;20404;-88
2022/06/27 12:22:03;;;;;;;13.13;1.57;;;;;;;24.29;nan;101690.41;6156046;23;20471;-91
2022/06/27 12:24:50;;;;;;;10.73;2.23;;;;;;;24.12;nan;101706.38;6116521;23;20535;-90
2022/06/27 12:27:18;;;;;;;13.73;2.60;;;;;;;24.14;nan;101697.75;6131939;23;20413;-91
2022/06/27 12:29:48;;;;;;;9.73;1.63;;;;;;;24.12;nan;101689.63;6132293;23;20492;-91
2022/06/27 12:32:18;;;;;;;14.37;2.07;;;;;;;24.35;nan;101696.91;6132373;23;20419;-91
2022/06/27 12:34:50;;;;;;;10.17;1.67;;;;;;;24.36;nan;101713.41;6112205;23;20477;-91
2022/06/27 12:37:21;;;;;;;10.80;2.40;;;;;;;24.38;nan;101704.78;6162494;23;20471;-91
2022/06/27 12:39:56;;;;;;;11.67;2.87;;;;;;;24.36;nan;101701.38;6137808;23;20475;-84
2022/06/27 12:42:28;;;;;;;12.23;2.03;;;;;;;24.35;nan;101688.53;6135042;23;20867;-91
2022/06/27 12:44:57;;;;;;;16.17;2.20;;;;;;;24.43;nan;101693.66;6135282;23;20829;-91
2022/06/27 12:47:26;;;;;;;10.47;2.13;;;;;;;24.40;nan;101719.31;6139473;23;20423;-90
2022/06/27 12:50:09;;;;;;;10.07;2.00;;;;;;;24.38;nan;101688.00;6022829;23;20868;-91
2022/06/27 12:52:39;;;;;;;13.73;2.00;;;;;;;24.60;nan;101696.34;6049415;23;20459;-91
2022/06/27 12:55:10;;;;;;;11.00;2.43;;;;;;;24.52;nan;101678.09;6017503;23;20416;-92
2022/06/27 12:57:59;;;;;;;7.00;1.43;;;;;;;24.64;nan;101692.72;6041422;23;20423;-91
2022/06/27 13:00:31;;;;;;;13.67;1.97;;;;;;;24.62;nan;101671.75;6017626;23;20986;-91
2022/06/27 13:03:00;;;;;;;16.33;1.60;;;;;;;24.76;nan;101690.63;6016993;23;20851;-91
2022/06/27 13:05:37;;;;;;;7.70;2.00;;;;;;;24.77;nan;101686.72;6039652;23;20562;-92
2022/06/27 13:08:07;;;;;;;9.07;1.87;;;;;;;24.84;nan;101702.41;6040877;23;20483;-90
2022/06/27 13:10:37;;;;;;;12.27;2.00;;;;;;;24.86;nan;101677.84;6040402;23;20663;-91
2022/06/27 13:13:05;;;;;;;12.90;2.40;;;;;;;24.61;nan;101668.13;6039826;23;20444;-90
2022/06/27 13:15:36;;;;;;;9.50;2.00;;;;;;;24.70;nan;101702.03;6137177;23;20468;-91
2022/06/27 13:18:05;;;;;;;8.37;1.23;;;;;;;24.85;nan;101688.16;6134821;23;20412;-90
2022/06/27 13:20:55;;;;;;;12.83;2.23;;;;;;;24.85;nan;101692.91;6118728;23;20411;-90
2022/06/27 13:30:05;;;;;;;8.70;1.80;;;;;;;24.76;nan;101690.63;6164848;23;21218;-91
2022/06/27 13:39:21;;;;;;;11.47;1.80;;;;;;;24.72;nan;101672.69;6187668;23;20379;-91
2022/06/27 13:41:49;;;;;;;9.80;1.70;;;;;;;24.67;nan;101675.44;6137884;23;20503;-91
2022/06/27 13:44:25;;;;;;;5.77;1.30;;;;;;;24.58;nan;101659.41;6114700;23;20439;-91
2022/06/27 13:46:53;;;;;;;10.30;2.33;;;;;;;24.45;nan;101667.09;6185975;23;20547;-91
2022/06/27 13:49:23;;;;;;;14.63;2.23;;;;;;;24.55;nan;101660.78;6122575;23;20401;-88
2022/06/27 13:51:56;;;;;;;10.47;2.00;;;;;;;24.40;nan;101675.47;6151491;23;20428;-90
2022/06/27 13:54:27;;;;;;;7.73;2.00;;;;;;;24.58;nan;101673.41;6161593;23;20396;-89
2022/06/27 13:56:56;;;;;;;13.33;1.93;;;;;;;24.52;nan;101661.31;6138010;23;20484;-90
2022/06/27 13:59:24;;;;;;;9.07;2.63;;;;;;;24.55;nan;101685.09;6136496;23;20478;-89
2022/06/27 14:01:54;;;;;;;9.00;1.90;;;;;;;24.70;nan;101658.13;6112443;23;20416;-89
2022/06/27 14:04:24;;;;;;;22.10;2.43;;;;;;;24.75;nan;101722.50;6160479;23;21020;-90
2022/06/27 14:09:41;;;;;;;8.23;1.60;;;;;;;24.87;nan;101679.53;6144814;23;20951;-90
2022/06/27 14:12:09;;;;;;;7.67;1.37;;;;;;;24.72;nan;101666.25;6136831;23;20420;-90
2022/06/27 14:14:39;;;;;;;8.90;1.63;;;;;;;24.72;nan;101678.28;6113203;23;20408;-89
2022/06/27 14:17:07;;;;;;;11.53;1.53;;;;;;;24.68;nan;101682.72;6112897;23;20544;-90
2022/06/27 14:19:35;;;;;;;10.73;1.77;;;;;;;24.73;nan;101663.19;6136881;23;20408;-90
2022/06/27 14:22:20;;;;;;;14.13;1.80;;;;;;;24.83;nan;101644.78;6136749;23;20404;-90
2022/06/27 14:25:04;;;;;;;5.80;1.53;;;;;;;24.88;nan;101642.06;6162505;23;20451;-90
2022/06/27 14:27:34;;;;;;;7.30;1.20;;;;;;;25.03;nan;101633.81;6137150;23;20467;-90
2022/06/27 14:30:04;;;;;;;11.57;1.90;;;;;;;25.04;nan;101661.50;6136586;23;20744;-90
2022/06/27 14:32:36;;;;;;;6.60;1.40;;;;;;;25.10;nan;101656.81;6136819;23;20392;-90
2022/06/27 14:35:24;;;;;;;7.67;1.33;;;;;;;25.00;nan;101634.38;6175641;23;20762;-89
2022/06/27 14:37:54;;;;;;;9.37;2.20;;;;;;;25.13;nan;101642.28;6131243;23;20436;-90
2022/06/27 14:40:24;;;;;;;9.73;1.73;;;;;;;25.20;nan;101637.31;6155826;23;20484;-89
2022/06/27 14:42:52;;;;;;;14.10;1.93;;;;;;;25.32;nan;101649.13;6131081;23;20892;-89
2022/06/27 14:45:20;;;;;;;13.17;2.07;;;;;;;25.23;nan;101650.75;6130548;23;20496;-90
2022/06/27 14:47:49;;;;;;;7.03;1.50;;;;;;;25.20;nan;101633.66;6130767;23;20492;-90
2022/06/27 14:50:26;;;;;;;6.87;1.47;;;;;;;25.22;nan;101653.81;6132064;23;20412;-90
2022/06/27 14:52:56;;;;;;;9.30;2.00;;;;;;;25.23;nan;101627.50;6131288;23;20696;-90
2022/06/27 14:55:24;;;;;;;11.90;1.70;;;;;;;25.37;nan;101623.97;6131649;23;20476;-90
2022/06/27 14:57:52;;;;;;;17.87;1.90;;;;;;;25.58;nan;101640.88;6131192;23;20495;-90
2022/06/27 15:00:21;;;;;;;8.90;1.77;;;;;;;25.69;nan;101634.25;6132146;23;20768;-89
2022/06/27 15:02:58;;;;;;;12.00;1.60;;;;;;;25.71;nan;101655.25;6133008;23;20393;-90
2022/06/27 15:05:26;;;;;;;7.30;1.40;;;;;;;25.65;nan;101621.91;6132068;23;21007;-90